createdAt,value
2022-08-30T00:00:56.438Z,11.9
2022-08-30T00:01:56.449Z,12.1
2022-08-30T00:02:56.533Z,12
2022-08-30T00:03:56.472Z,12
2022-08-30T00:04:56.428Z,12
2022-08-30T00:05:56.595Z,12
2022-08-30T00:06:56.421Z,12
2022-08-30T00:07:56.459Z,11.9
2022-08-30T00:08:56.445Z,11.8
2022-08-30T00:09:56.429Z,12
2022-08-30T00:10:56.479Z,12
2022-08-30T00:11:56.436Z,11.9
2022-08-30T00:12:56.450Z,11.7
2022-08-30T00:13:56.435Z,11.9
2022-08-30T00:14:56.462Z,11.7
2022-08-30T00:15:56.502Z,11.8
2022-08-30T00:16:56.429Z,11.9
2022-08-30T00:17:56.432Z,12
2022-08-30T00:18:56.442Z,11.9
2022-08-30T00:19:56.435Z,11.7
2022-08-30T00:20:56.433Z,12
2022-08-30T00:21:56.442Z,11.7
2022-08-30T00:22:56.497Z,11.9
2022-08-30T00:23:56.434Z,11.6
2022-08-30T00:24:56.421Z,11.6
2022-08-30T00:25:56.439Z,11.6
2022-08-30T00:26:56.426Z,11.5
2022-08-30T00:27:56.421Z,11.5
2022-08-30T00:28:56.428Z,11.2
2022-08-30T00:29:56.436Z,11.2
2022-08-30T00:30:56.496Z,11.2
2022-08-30T00:31:56.441Z,11.3
2022-08-30T00:32:56.420Z,11.2
2022-08-30T00:33:56.438Z,11.3
2022-08-30T00:34:56.497Z,11.5
2022-08-30T00:35:56.439Z,11.3
2022-08-30T00:36:56.450Z,11.1
2022-08-30T00:37:56.495Z,11.1
2022-08-30T00:38:56.457Z,11.1
2022-08-30T00:39:56.531Z,11.1
2022-08-30T00:40:56.434Z,11.2
2022-08-30T00:41:56.449Z,11.4
2022-08-30T00:42:59.337Z,11.5
2022-08-30T00:43:56.423Z,11.4
2022-08-30T00:44:56.433Z,11.5
2022-08-30T00:45:56.528Z,11.5
2022-08-30T00:46:56.480Z,11.5
2022-08-30T00:47:56.444Z,11.4
2022-08-30T00:48:56.429Z,11.3
2022-08-30T00:49:56.437Z,11.3
2022-08-30T00:50:56.473Z,11.3
2022-08-30T00:51:56.509Z,11.2
2022-08-30T00:52:56.424Z,11.3
2022-08-30T00:53:56.451Z,11.3
2022-08-30T00:54:56.469Z,11.2
2022-08-30T00:55:56.563Z,11.2
2022-08-30T00:56:56.431Z,11.2
2022-08-30T00:57:56.447Z,11.1
2022-08-30T00:58:56.800Z,11
2022-08-30T00:59:56.538Z,11
2022-08-30T01:00:56.462Z,11
2022-08-30T01:01:56.502Z,11.1
2022-08-30T01:02:56.509Z,11
2022-08-30T01:03:56.489Z,11
2022-08-30T01:04:56.444Z,11.1
2022-08-30T01:05:56.455Z,11.3
2022-08-30T01:06:56.481Z,11.5
2022-08-30T01:07:56.454Z,11.4
2022-08-30T01:08:56.457Z,11.4
2022-08-30T01:09:56.469Z,11.2
2022-08-30T01:10:56.458Z,11.2
2022-08-30T01:11:56.456Z,11.2
2022-08-30T01:12:56.460Z,11.1
2022-08-30T01:13:56.449Z,11.1
2022-08-30T01:14:56.453Z,10.9
2022-08-30T01:15:56.524Z,10.8
2022-08-30T01:16:56.471Z,10.7
2022-08-30T01:17:56.475Z,10.9
2022-08-30T01:18:56.447Z,10.9
2022-08-30T01:19:56.435Z,11.1
2022-08-30T01:20:56.522Z,11.4
2022-08-30T01:21:56.470Z,11.5
2022-08-30T01:22:56.473Z,11.3
2022-08-30T01:23:56.488Z,11.1
2022-08-30T01:24:56.474Z,11
2022-08-30T01:25:56.483Z,11
2022-08-30T01:26:56.457Z,10.9
2022-08-30T01:27:56.520Z,10.9
2022-08-30T01:28:56.462Z,10.9
2022-08-30T01:29:56.449Z,10.9
2022-08-30T01:30:56.578Z,10.8
2022-08-30T01:31:56.449Z,10.8
2022-08-30T01:32:56.454Z,10.6
2022-08-30T01:33:56.467Z,10.5
2022-08-30T01:34:56.443Z,10.5
2022-08-30T01:35:56.445Z,10.4
2022-08-30T01:36:56.483Z,10.5
2022-08-30T01:37:56.523Z,10.5
2022-08-30T01:38:56.457Z,10.5
2022-08-30T01:39:56.512Z,10.6
2022-08-30T01:40:56.470Z,10.5
2022-08-30T01:41:56.457Z,10.5
2022-08-30T01:42:56.443Z,10.4
2022-08-30T01:43:56.474Z,10.5
2022-08-30T01:44:56.457Z,10.5
2022-08-30T01:45:56.508Z,10.4
2022-08-30T01:46:56.469Z,10.2
2022-08-30T01:47:56.472Z,10.3
2022-08-30T01:48:56.452Z,10.5
2022-08-30T01:49:56.470Z,10.4
2022-08-30T01:50:56.469Z,10.5
2022-08-30T01:52:01.058Z,10.5
2022-08-30T01:52:56.463Z,10.5
2022-08-30T01:53:56.471Z,10.6
2022-08-30T01:54:56.513Z,10.5
2022-08-30T01:55:56.471Z,10.4
2022-08-30T01:56:56.458Z,10.5
2022-08-30T01:57:56.450Z,10.3
2022-08-30T01:59:00.406Z,10.2
2022-08-30T01:59:56.493Z,10.3
2022-08-30T02:00:56.525Z,10.4
2022-08-30T02:01:56.458Z,10.4
2022-08-30T02:02:56.491Z,10.3
2022-08-30T02:03:56.590Z,10.2
2022-08-30T02:04:56.469Z,10
2022-08-30T02:05:56.467Z,10
2022-08-30T02:06:56.458Z,10
2022-08-30T02:07:56.490Z,10
2022-08-30T02:08:56.455Z,10
2022-08-30T02:09:56.459Z,9.8
2022-08-30T02:10:56.497Z,9.8
2022-08-30T02:11:56.502Z,9.9
2022-08-30T02:12:56.472Z,10
2022-08-30T02:13:56.465Z,10.1
2022-08-30T02:14:56.444Z,10
2022-08-30T02:15:56.483Z,10
2022-08-30T02:16:56.554Z,10
2022-08-30T02:17:56.459Z,10
2022-08-30T02:18:56.467Z,9.9
2022-08-30T02:19:56.472Z,10
2022-08-30T02:20:56.489Z,10
2022-08-30T02:21:56.457Z,10
2022-08-30T02:22:59.689Z,10
2022-08-30T02:23:56.464Z,10
2022-08-30T02:24:56.461Z,10
2022-08-30T02:25:56.471Z,10.1
2022-08-30T02:26:56.478Z,10.1
2022-08-30T02:27:56.483Z,10.1
2022-08-30T02:28:56.519Z,10.1
2022-08-30T02:29:56.489Z,10
2022-08-30T02:30:56.513Z,10.1
2022-08-30T02:31:56.460Z,10.2
2022-08-30T02:32:56.478Z,10.2
2022-08-30T02:33:56.533Z,10.2
2022-08-30T02:34:56.489Z,10.2
2022-08-30T02:35:56.470Z,10.2
2022-08-30T02:36:56.462Z,10.2
2022-08-30T02:37:56.484Z,10.2
2022-08-30T02:38:56.494Z,10.1
2022-08-30T02:39:56.513Z,10.1
2022-08-30T02:40:56.465Z,10.1
2022-08-30T02:41:56.473Z,10.2
2022-08-30T02:42:56.473Z,10.1
2022-08-30T02:43:56.474Z,10.2
2022-08-30T02:44:56.469Z,10.2
2022-08-30T02:45:56.561Z,10.2
2022-08-30T02:46:56.473Z,10.2
2022-08-30T02:47:56.486Z,10.1
2022-08-30T02:48:56.470Z,10
2022-08-30T02:49:56.471Z,9.9
2022-08-30T02:50:56.476Z,9.9
2022-08-30T02:51:56.486Z,9.9
2022-08-30T02:52:56.542Z,9.9
2022-08-30T02:53:56.491Z,9.9
2022-08-30T02:54:56.476Z,9.8
2022-08-30T02:55:56.469Z,9.9
2022-08-30T02:56:56.488Z,9.8
2022-08-30T02:57:56.481Z,9.8
2022-08-30T02:58:56.462Z,9.6
2022-08-30T02:59:56.467Z,9.5
2022-08-30T03:00:56.529Z,9.7
2022-08-30T03:01:56.489Z,9.6
2022-08-30T03:02:56.490Z,9.8
2022-08-30T03:03:56.522Z,9.8
2022-08-30T03:04:56.511Z,9.6
2022-08-30T03:05:56.469Z,9.6
2022-08-30T03:06:56.531Z,9.7
2022-08-30T03:07:56.469Z,9.7
2022-08-30T03:08:56.475Z,9.5
2022-08-30T03:09:56.537Z,9.6
2022-08-30T03:10:56.486Z,9.8
2022-08-30T03:11:56.496Z,9.7
2022-08-30T03:12:56.485Z,9.8
2022-08-30T03:13:56.497Z,9.8
2022-08-30T03:14:56.480Z,9.8
2022-08-30T03:15:56.512Z,9.7
2022-08-30T03:16:56.550Z,9.8
2022-08-30T03:17:56.466Z,9.7
2022-08-30T03:18:56.469Z,9.5
2022-08-30T03:19:56.501Z,9.7
2022-08-30T03:20:56.471Z,9.6
2022-08-30T03:21:56.477Z,9.6
2022-08-30T03:22:56.498Z,9.6
2022-08-30T03:23:56.469Z,9.6
2022-08-30T03:24:56.481Z,9.6
2022-08-30T03:25:56.474Z,9.5
2022-08-30T03:26:56.526Z,9.6
2022-08-30T03:27:56.473Z,9.6
2022-08-30T03:28:56.492Z,9.6
2022-08-30T03:29:56.489Z,9.8
2022-08-30T03:30:56.499Z,9.8
2022-08-30T03:31:56.515Z,9.9
2022-08-30T03:32:56.508Z,9.9
2022-08-30T03:33:56.482Z,9.9
2022-08-30T03:34:56.485Z,9.8
2022-08-30T03:35:56.494Z,9.9
2022-08-30T03:36:56.575Z,9.8
2022-08-30T03:37:56.532Z,9.6
2022-08-30T03:38:56.486Z,9.5
2022-08-30T03:39:56.578Z,9.5
2022-08-30T03:40:56.483Z,9.5
2022-08-30T03:41:56.551Z,9.6
2022-08-30T03:42:56.492Z,9.7
2022-08-30T03:43:59.909Z,9.8
2022-08-30T03:44:56.503Z,9.8
2022-08-30T03:45:56.531Z,9.8
2022-08-30T03:46:56.479Z,9.8
2022-08-30T03:47:56.487Z,9.8
2022-08-30T03:48:56.536Z,9.8
2022-08-30T03:49:56.488Z,9.8
2022-08-30T03:50:56.497Z,9.7
2022-08-30T03:51:56.479Z,9.5
2022-08-30T03:52:56.475Z,9.4
2022-08-30T03:53:56.503Z,9.3
2022-08-30T03:54:56.502Z,9.4
2022-08-30T03:55:57.348Z,9.2
2022-08-30T03:56:56.482Z,9.3
2022-08-30T03:57:56.483Z,9.2
2022-08-30T03:58:56.478Z,9.2
2022-08-30T03:59:56.487Z,9.2
2022-08-30T04:00:56.580Z,9.1
2022-08-30T04:01:56.524Z,9.1
2022-08-30T04:02:56.530Z,9.2
2022-08-30T04:03:56.532Z,9.4
2022-08-30T04:04:56.507Z,9.5
2022-08-30T04:05:56.489Z,9.6
2022-08-30T04:06:56.492Z,9.5
2022-08-30T04:07:56.481Z,9.5
2022-08-30T04:08:56.497Z,9.5
2022-08-30T04:09:56.502Z,9.6
2022-08-30T04:10:56.524Z,9.7
2022-08-30T04:11:56.486Z,9.6
2022-08-30T04:12:56.488Z,9.5
2022-08-30T04:13:56.483Z,9.6
2022-08-30T04:14:56.501Z,9.6
2022-08-30T04:15:56.734Z,9.6
2022-08-30T04:16:56.519Z,9.6
2022-08-30T04:17:56.489Z,9.6
2022-08-30T04:18:56.490Z,9.7
2022-08-30T04:19:56.541Z,9.6
2022-08-30T04:20:56.482Z,9.5
2022-08-30T04:21:56.492Z,9.5
2022-08-30T04:22:56.482Z,9.4
2022-08-30T04:23:56.478Z,9.4
2022-08-30T04:24:56.482Z,9.3
2022-08-30T04:25:56.508Z,9.4
2022-08-30T04:26:56.507Z,9.4
2022-08-30T04:27:56.527Z,9.4
2022-08-30T04:28:56.504Z,9.5
2022-08-30T04:29:56.492Z,9.4
2022-08-30T04:30:56.488Z,9.3
2022-08-30T04:31:56.636Z,9.3
2022-08-30T04:32:58.775Z,9.3
2022-08-30T04:33:56.538Z,9.2
2022-08-30T04:34:56.476Z,9
2022-08-30T04:35:56.499Z,9
2022-08-30T04:36:56.518Z,9.1
2022-08-30T04:37:56.490Z,9.1
2022-08-30T04:38:56.478Z,9.1
2022-08-30T04:39:56.646Z,9.1
2022-08-30T04:40:56.494Z,9.1
2022-08-30T04:41:56.485Z,9
2022-08-30T04:42:56.495Z,9
2022-08-30T04:43:56.492Z,9
2022-08-30T04:44:56.499Z,8.9
2022-08-30T04:45:56.515Z,8.9
2022-08-30T04:46:56.498Z,9
2022-08-30T04:47:56.563Z,8.9
2022-08-30T04:48:56.529Z,9
2022-08-30T04:49:56.488Z,9.2
2022-08-30T04:50:56.495Z,9.2
2022-08-30T04:51:56.498Z,9.2
2022-08-30T04:52:56.539Z,9.2
2022-08-30T04:53:56.516Z,9.2
2022-08-30T04:54:56.491Z,9.1
2022-08-30T04:55:56.538Z,9.2
2022-08-30T04:56:56.641Z,9.3
2022-08-30T04:57:56.493Z,9.3
2022-08-30T04:58:56.507Z,9.2
2022-08-30T04:59:56.498Z,9.2
2022-08-30T05:00:56.585Z,9.3
2022-08-30T05:01:56.585Z,9.1
2022-08-30T05:02:56.504Z,9.1
2022-08-30T05:03:56.538Z,9.2
2022-08-30T05:04:56.493Z,9.1
2022-08-30T05:05:56.512Z,9
2022-08-30T05:06:56.500Z,8.9
2022-08-30T05:07:56.521Z,9
2022-08-30T05:08:56.510Z,8.9
2022-08-30T05:09:56.496Z,8.9
2022-08-30T05:10:56.516Z,8.9
2022-08-30T05:11:56.554Z,8.9
2022-08-30T05:12:56.505Z,8.9
2022-08-30T05:13:56.518Z,8.9
2022-08-30T05:14:56.530Z,9
2022-08-30T05:15:56.503Z,9
2022-08-30T05:16:56.517Z,9.1
2022-08-30T05:17:56.520Z,9
2022-08-30T05:18:56.578Z,9.2
2022-08-30T05:19:56.495Z,9.2
2022-08-30T05:20:56.532Z,9.1
2022-08-30T05:21:56.508Z,8.9
2022-08-30T05:22:56.503Z,8.9
2022-08-30T05:23:56.537Z,8.8
2022-08-30T05:24:56.502Z,8.8
2022-08-30T05:25:56.507Z,8.8
2022-08-30T05:26:56.530Z,8.8
2022-08-30T05:27:56.529Z,8.7
2022-08-30T05:28:56.520Z,8.9
2022-08-30T05:29:56.501Z,8.8
2022-08-30T05:30:56.697Z,8.7
2022-08-30T05:31:56.519Z,8.8
2022-08-30T05:32:56.523Z,8.7
2022-08-30T05:33:56.496Z,8.7
2022-08-30T05:34:56.502Z,8.8
2022-08-30T05:35:56.549Z,9
2022-08-30T05:36:56.498Z,8.8
2022-08-30T05:37:56.515Z,9
2022-08-30T05:38:56.507Z,9.4
2022-08-30T05:39:56.687Z,9.4
2022-08-30T05:40:56.513Z,9.5
2022-08-30T05:41:56.524Z,9.5
2022-08-30T05:42:56.508Z,9.5
2022-08-30T05:43:56.506Z,9.5
2022-08-30T05:44:56.502Z,9.5
2022-08-30T05:45:56.557Z,9.6
2022-08-30T05:46:56.510Z,9.9
2022-08-30T05:47:56.568Z,10
2022-08-30T05:48:56.528Z,10.1
2022-08-30T05:49:56.526Z,9.9
2022-08-30T05:50:56.507Z,9.9
2022-08-30T05:51:56.531Z,10.4
2022-08-30T05:52:56.511Z,10.6
2022-08-30T05:53:56.505Z,10.7
2022-08-30T05:54:56.524Z,10.3
2022-08-30T05:55:56.513Z,10.3
2022-08-30T05:56:56.520Z,10.6
2022-08-30T05:57:56.517Z,10.3
2022-08-30T05:58:56.539Z,10.4
2022-08-30T05:59:56.525Z,10.1
2022-08-30T06:00:56.517Z,9.7
2022-08-30T06:01:56.548Z,9.5
2022-08-30T06:02:56.562Z,9.5
2022-08-30T06:04:00.360Z,9.4
2022-08-30T06:04:56.517Z,9.1
2022-08-30T06:05:56.531Z,9
2022-08-30T06:06:56.522Z,9.1
2022-08-30T06:07:56.514Z,9.2
2022-08-30T06:08:56.516Z,9.5
2022-08-30T06:09:56.542Z,9.7
2022-08-30T06:10:56.515Z,9.9
2022-08-30T06:11:56.508Z,10.1
2022-08-30T06:12:56.501Z,10.1
2022-08-30T06:13:56.539Z,10.3
2022-08-30T06:14:56.522Z,10.1
2022-08-30T06:15:56.548Z,10
2022-08-30T06:16:56.549Z,10
2022-08-30T06:18:56.511Z,10.1
2022-08-30T06:19:56.524Z,9.7
2022-08-30T06:20:56.560Z,9.8
2022-08-30T06:21:56.601Z,9.9
2022-08-30T06:22:56.507Z,9.9
2022-08-30T06:23:56.515Z,9.9
2022-08-30T06:25:56.510Z,9.9
2022-08-30T06:26:56.535Z,9.9
2022-08-30T06:27:56.760Z,9.9
2022-08-30T06:28:56.514Z,10
2022-08-30T06:29:56.517Z,10.1
2022-08-30T06:30:56.599Z,10.1
2022-08-30T06:31:56.538Z,10
2022-08-30T06:32:56.523Z,10
2022-08-30T06:33:56.537Z,10.2
2022-08-30T06:34:56.531Z,10
2022-08-30T06:35:58.343Z,10.3
2022-08-30T06:36:56.516Z,10
2022-08-30T06:37:56.525Z,10
2022-08-30T06:38:56.524Z,9.9
2022-08-30T06:39:56.702Z,10
2022-08-30T06:40:56.535Z,10.5
2022-08-30T06:41:56.534Z,10.1
2022-08-30T06:42:56.529Z,10.1
2022-08-30T06:43:56.535Z,10.1
2022-08-30T06:44:56.529Z,10.2
2022-08-30T06:45:56.539Z,10.3
2022-08-30T06:46:56.613Z,10.7
2022-08-30T06:47:56.539Z,10.7
2022-08-30T06:48:56.539Z,11.1
2022-08-30T06:49:56.538Z,10.8
2022-08-30T06:50:56.531Z,10.7
2022-08-30T06:51:56.553Z,10.9
2022-08-30T06:52:56.953Z,10.7
2022-08-30T06:53:56.558Z,10.5
2022-08-30T06:54:56.545Z,11
2022-08-30T06:55:56.545Z,10.8
2022-08-30T06:56:58.649Z,11
2022-08-30T06:57:56.520Z,11.1
2022-08-30T06:58:56.526Z,11.6
2022-08-30T06:59:57.306Z,11.4
2022-08-30T07:00:56.590Z,11.3
2022-08-30T07:01:56.611Z,11.3
2022-08-30T07:02:56.589Z,11.3
2022-08-30T07:03:56.543Z,11.4
2022-08-30T07:04:56.515Z,11.2
2022-08-30T07:05:56.586Z,11.2
2022-08-30T07:06:56.550Z,11.2
2022-08-30T07:07:56.549Z,11.4
2022-08-30T07:08:56.700Z,12
2022-08-30T07:09:56.536Z,11.5
2022-08-30T07:10:56.592Z,11.7
2022-08-30T07:11:56.536Z,11.9
2022-08-30T07:12:56.520Z,11.6
2022-08-30T07:13:56.590Z,11.5
2022-08-30T07:14:56.568Z,11.6
2022-08-30T07:15:56.620Z,11.4
2022-08-30T07:16:56.550Z,11.4
2022-08-30T07:17:56.596Z,11.4
2022-08-30T07:18:56.573Z,11.3
2022-08-30T07:19:56.535Z,11.4
2022-08-30T07:20:56.606Z,11.4
2022-08-30T07:21:56.560Z,11.4
2022-08-30T07:22:56.540Z,11.8
2022-08-30T07:23:56.543Z,11.4
2022-08-30T07:24:56.549Z,11.2
2022-08-30T07:25:56.535Z,11.2
2022-08-30T07:26:56.576Z,11.3
2022-08-30T07:27:56.548Z,11.5
2022-08-30T07:28:56.619Z,11.5
2022-08-30T07:29:56.521Z,11.7
2022-08-30T07:30:56.582Z,12
2022-08-30T07:31:56.550Z,11.6
2022-08-30T07:32:56.562Z,11.6
2022-08-30T07:33:56.542Z,11.7
2022-08-30T07:34:56.562Z,11.6
2022-08-30T07:35:56.567Z,11.5
2022-08-30T07:36:56.591Z,11.4
2022-08-30T07:37:56.550Z,11.6
2022-08-30T07:38:56.543Z,11.9
2022-08-30T07:39:56.700Z,11.7
2022-08-30T07:40:56.560Z,11.9
2022-08-30T07:41:56.547Z,11.9
2022-08-30T07:42:56.552Z,12.1
2022-08-30T07:43:56.543Z,12
2022-08-30T07:44:57.063Z,11.9
2022-08-30T07:45:56.571Z,12
2022-08-30T07:46:56.605Z,12
2022-08-30T07:47:56.567Z,12
2022-08-30T07:48:56.562Z,11.9
2022-08-30T07:49:56.544Z,12
2022-08-30T07:50:59.842Z,12
2022-08-30T07:51:56.585Z,12
2022-08-30T07:52:56.538Z,11.9
2022-08-30T07:53:56.537Z,12
2022-08-30T07:54:56.556Z,11.9
2022-08-30T07:55:56.547Z,12.1
2022-08-30T07:56:56.576Z,12
2022-08-30T07:57:56.618Z,12.1
2022-08-30T07:58:56.565Z,12.2
2022-08-30T07:59:56.546Z,12.2
2022-08-30T08:00:56.537Z,12.2
2022-08-30T08:01:56.671Z,12.3
2022-08-30T08:02:56.617Z,12.3
2022-08-30T08:03:56.549Z,12.2
2022-08-30T08:04:56.545Z,12.7
2022-08-30T08:05:56.559Z,12.4
2022-08-30T08:06:56.604Z,12.6
2022-08-30T08:07:56.547Z,12.6
2022-08-30T08:08:56.555Z,12.8
2022-08-30T08:09:56.548Z,12.7
2022-08-30T08:10:56.542Z,12.6
2022-08-30T08:11:56.570Z,12.6
2022-08-30T08:12:56.575Z,12.7
2022-08-30T08:13:56.597Z,12.5
2022-08-30T08:14:56.564Z,12.6
2022-08-30T08:15:56.628Z,12.6
2022-08-30T08:16:56.613Z,12.6
2022-08-30T08:17:56.565Z,13
2022-08-30T08:18:56.604Z,12.7
2022-08-30T08:19:56.544Z,12.7
2022-08-30T08:20:56.943Z,12.8
2022-08-30T08:22:19.582Z,12.7
2022-08-30T08:22:56.552Z,12.9
2022-08-30T08:23:56.555Z,12.8
2022-08-30T08:24:56.548Z,12.8
2022-08-30T08:25:56.570Z,13
2022-08-30T08:26:56.592Z,13.1
2022-08-30T08:27:57.557Z,13.3
2022-08-30T08:28:56.551Z,13.4
2022-08-30T08:29:56.572Z,13.1
2022-08-30T08:30:56.593Z,13.5
2022-08-30T08:31:56.562Z,13.5
2022-08-30T08:32:56.569Z,13.2
2022-08-30T08:33:56.679Z,14
2022-08-30T08:34:56.558Z,13.4
2022-08-30T08:35:56.564Z,13.5
2022-08-30T08:36:56.576Z,14.2
2022-08-30T08:37:56.544Z,14.3
2022-08-30T08:38:56.563Z,14.6
2022-08-30T08:39:56.564Z,13.8
2022-08-30T08:40:56.598Z,13.9
2022-08-30T08:41:56.567Z,14.2
2022-08-30T08:42:56.588Z,14.1
2022-08-30T08:43:56.591Z,14.1
2022-08-30T08:44:56.553Z,14.1
2022-08-30T08:45:56.642Z,14.3
2022-08-30T08:46:56.618Z,14.5
2022-08-30T08:47:56.574Z,14
2022-08-30T08:49:00.651Z,14.1
2022-08-30T08:49:56.561Z,14.5
2022-08-30T08:50:59.445Z,14.5
2022-08-30T08:51:56.572Z,14.3
2022-08-30T08:52:56.708Z,14.7
2022-08-30T08:53:56.572Z,14.2
2022-08-30T08:54:57.872Z,14.4
2022-08-30T08:55:56.554Z,14.4
2022-08-30T08:56:56.630Z,14.7
2022-08-30T08:57:56.632Z,14.9
2022-08-30T08:58:56.583Z,14.7
2022-08-30T08:59:56.571Z,14.5
2022-08-30T09:00:56.562Z,14.5
2022-08-30T09:01:58.174Z,14.2
2022-08-30T09:02:56.585Z,14.3
2022-08-30T09:03:56.571Z,14.4
2022-08-30T09:04:56.607Z,14.4
2022-08-30T09:05:56.552Z,14.6
2022-08-30T09:06:56.651Z,14.5
2022-08-30T09:07:56.561Z,14.8
2022-08-30T09:08:56.568Z,14.7
2022-08-30T09:09:56.583Z,14.8
2022-08-30T09:10:56.566Z,15
2022-08-30T09:11:56.589Z,15.1
2022-08-30T09:12:59.924Z,15.1
2022-08-30T09:13:56.884Z,14.9
2022-08-30T09:14:56.563Z,15.2
2022-08-30T09:15:56.608Z,15.1
2022-08-30T09:16:56.647Z,15.2
2022-08-30T09:17:56.568Z,15.4
2022-08-30T09:18:56.565Z,15.3
2022-08-30T09:19:56.582Z,15.5
2022-08-30T09:20:56.587Z,15.4
2022-08-30T09:21:56.582Z,15.6
2022-08-30T09:22:56.579Z,16.1
2022-08-30T09:23:56.567Z,15.6
2022-08-30T09:24:56.568Z,15.8
2022-08-30T09:25:56.580Z,15.8
2022-08-30T09:26:56.683Z,15.6
2022-08-30T09:27:56.563Z,15.5
2022-08-30T09:28:56.576Z,16
2022-08-30T09:29:56.582Z,15.9
2022-08-30T09:30:56.644Z,16
2022-08-30T09:32:25.248Z,16
2022-08-30T09:32:56.612Z,16
2022-08-30T09:33:56.580Z,15.7
2022-08-30T09:34:56.566Z,15.9
2022-08-30T09:35:56.580Z,15.9
2022-08-30T09:36:56.613Z,16.5
2022-08-30T09:37:56.603Z,16.4
2022-08-30T09:38:56.589Z,17.1
2022-08-30T09:39:56.589Z,16.7
2022-08-30T09:40:56.593Z,16.6
2022-08-30T09:41:56.596Z,16.6
2022-08-30T09:42:56.585Z,16.4
2022-08-30T09:43:56.632Z,16.5
2022-08-30T09:44:56.574Z,16.8
2022-08-30T09:45:56.672Z,17
2022-08-30T09:46:56.603Z,17.1
2022-08-30T09:47:56.579Z,16.9
2022-08-30T09:48:56.602Z,17
2022-08-30T09:49:56.605Z,17.2
2022-08-30T09:50:56.573Z,17.1
2022-08-30T09:51:56.613Z,16.9
2022-08-30T09:52:56.603Z,17.2
2022-08-30T09:54:22.790Z,16.9
2022-08-30T09:54:56.609Z,16.8
2022-08-30T09:55:56.625Z,16.5
2022-08-30T09:56:56.648Z,16.8
2022-08-30T09:57:56.588Z,16.8
2022-08-30T09:58:56.594Z,16.7
2022-08-30T09:59:56.589Z,17.1
2022-08-30T10:00:56.623Z,17.2
2022-08-30T10:01:56.630Z,17.4
2022-08-30T10:02:56.576Z,17.7
2022-08-30T10:03:56.587Z,17.6
2022-08-30T10:04:56.606Z,17.2
2022-08-30T10:05:56.656Z,17.8
2022-08-30T10:06:56.591Z,17.8
2022-08-30T10:07:56.592Z,18
2022-08-30T10:08:56.610Z,17.7
2022-08-30T10:09:56.620Z,18
2022-08-30T10:10:56.595Z,18
2022-08-30T10:11:56.630Z,18.1
2022-08-30T10:12:56.661Z,18.3
2022-08-30T10:13:56.605Z,18.1
2022-08-30T10:14:56.621Z,18.1
2022-08-30T10:15:56.611Z,17.9
2022-08-30T10:16:56.607Z,17.8
2022-08-30T10:18:56.610Z,17.9
2022-08-30T10:19:56.668Z,18
2022-08-30T10:20:56.588Z,18.2
2022-08-30T10:21:56.612Z,17.9
2022-08-30T10:22:58.676Z,17.4
2022-08-30T10:23:56.598Z,17.7
2022-08-30T10:24:56.690Z,17.7
2022-08-30T10:25:56.584Z,17.9
2022-08-30T10:26:56.642Z,17.6
2022-08-30T10:27:56.607Z,17.9
2022-08-30T10:28:56.592Z,17.9
2022-08-30T10:29:56.659Z,17.6
2022-08-30T10:30:56.595Z,17.8
2022-08-30T10:31:56.618Z,17.5
2022-08-30T10:32:56.608Z,17.5
2022-08-30T10:33:56.595Z,17.3
2022-08-30T10:34:56.601Z,17.5
2022-08-30T10:35:56.602Z,17.4
2022-08-30T10:36:56.612Z,17.5
2022-08-30T10:37:56.604Z,17.6
2022-08-30T10:38:56.601Z,17.8
2022-08-30T10:39:56.628Z,18.3
2022-08-30T10:40:56.598Z,18.4
2022-08-30T10:41:56.666Z,18.3
2022-08-30T10:42:56.609Z,18.1
2022-08-30T10:43:56.605Z,18.2
2022-08-30T10:44:56.621Z,17.8
2022-08-30T10:45:56.611Z,18.1
2022-08-30T10:46:56.628Z,18.3
2022-08-30T10:47:56.594Z,18.4
2022-08-30T10:48:56.610Z,18.2
2022-08-30T10:49:56.614Z,18.3
2022-08-30T10:50:56.712Z,17.9
2022-08-30T10:52:56.626Z,18
2022-08-30T10:53:56.611Z,17.9
2022-08-30T10:54:56.639Z,18
2022-08-30T10:55:56.610Z,18.1
2022-08-30T10:56:56.631Z,18
2022-08-30T10:57:56.630Z,18.1
2022-08-30T10:58:56.664Z,18.2
2022-08-30T10:59:56.614Z,18
2022-08-30T11:00:56.676Z,17.7
2022-08-30T11:01:56.649Z,17.6
2022-08-30T11:02:56.616Z,17.9
2022-08-30T11:03:56.661Z,17.9
2022-08-30T11:04:56.613Z,17.9
2022-08-30T11:05:56.607Z,17.7
2022-08-30T11:06:56.617Z,17.5
2022-08-30T11:07:56.632Z,17.5
2022-08-30T11:08:56.621Z,17.4
2022-08-30T11:09:56.618Z,17.4
2022-08-30T11:10:56.623Z,17.6
2022-08-30T11:11:56.639Z,17.5
2022-08-30T11:12:56.609Z,17.6
2022-08-30T11:14:56.623Z,18
2022-08-30T11:15:56.636Z,18.3
2022-08-30T11:16:56.628Z,18.2
2022-08-30T11:17:56.663Z,18.1
2022-08-30T11:18:56.644Z,18.1
2022-08-30T11:19:56.613Z,18
2022-08-30T11:20:56.660Z,18.4
2022-08-30T11:21:56.628Z,18.1
2022-08-30T11:22:56.607Z,18.3
2022-08-30T11:23:56.607Z,18.1
2022-08-30T11:24:56.632Z,17.9
2022-08-30T11:25:57.868Z,18.1
2022-08-30T11:26:56.649Z,17.9
2022-08-30T11:27:56.629Z,18.2
2022-08-30T11:28:56.629Z,18
2022-08-30T11:29:56.665Z,18.2
2022-08-30T11:30:56.627Z,18.5
2022-08-30T11:31:56.652Z,18.4
2022-08-30T11:32:56.619Z,18.2
2022-08-30T11:33:56.630Z,18.5
2022-08-30T11:34:56.629Z,18.3
2022-08-30T11:35:56.628Z,18.5
2022-08-30T11:36:56.842Z,18.4
2022-08-30T11:37:56.620Z,18.8
2022-08-30T11:38:56.640Z,19.1
2022-08-30T11:39:56.644Z,19
2022-08-30T11:40:56.726Z,19.1
2022-08-30T11:41:56.652Z,19.1
2022-08-30T11:42:56.699Z,19.2
2022-08-30T11:43:56.660Z,19.1
2022-08-30T11:44:56.634Z,19.1
2022-08-30T11:45:56.725Z,19.3
2022-08-30T11:46:56.644Z,19.2
2022-08-30T11:47:56.617Z,19.5
2022-08-30T11:48:56.639Z,19.1
2022-08-30T11:49:56.639Z,19.2
2022-08-30T11:50:56.627Z,18.9
2022-08-30T11:52:26.560Z,18.7
2022-08-30T11:52:56.629Z,18.7
2022-08-30T11:53:56.636Z,19
2022-08-30T11:54:56.710Z,19
2022-08-30T11:55:56.628Z,18.7
2022-08-30T11:56:56.642Z,19.1
2022-08-30T11:57:56.635Z,19
2022-08-30T11:58:56.638Z,19
2022-08-30T11:59:56.708Z,19.2
2022-08-30T12:00:56.643Z,19.3
2022-08-30T12:01:56.716Z,19.5
2022-08-30T12:02:58.377Z,19.3
2022-08-30T12:03:56.636Z,19.2
2022-08-30T12:04:56.646Z,18.9
2022-08-30T12:05:57.440Z,18.7
2022-08-30T12:06:56.658Z,18.6
2022-08-30T12:07:56.644Z,18.7
2022-08-30T12:09:02.649Z,18.9
2022-08-30T12:09:56.637Z,18.6
2022-08-30T12:10:56.655Z,18.6
2022-08-30T12:11:56.658Z,18.6
2022-08-30T12:12:56.638Z,18.7
2022-08-30T12:13:56.638Z,18.6
2022-08-30T12:14:56.642Z,18.7
2022-08-30T12:15:56.633Z,19
2022-08-30T12:16:56.809Z,19
2022-08-30T12:17:56.651Z,19
2022-08-30T12:18:56.646Z,19.1
2022-08-30T12:19:56.653Z,19.1
2022-08-30T12:20:56.654Z,19.1
2022-08-30T12:21:56.691Z,18.9
2022-08-30T12:22:56.633Z,18.8
2022-08-30T12:23:56.636Z,18.9
2022-08-30T12:24:56.647Z,18.8
2022-08-30T12:25:56.660Z,18.9
2022-08-30T12:26:56.654Z,18.7
2022-08-30T12:27:59.593Z,19.1
2022-08-30T12:28:56.647Z,18.6
2022-08-30T12:29:56.651Z,18.6
2022-08-30T12:30:56.676Z,18.7
2022-08-30T12:31:58.104Z,18.6
2022-08-30T12:32:56.646Z,18.7
2022-08-30T12:33:56.651Z,18.5
2022-08-30T12:34:56.649Z,18.6
2022-08-30T12:35:56.650Z,18.7
2022-08-30T12:36:56.673Z,18.8
2022-08-30T12:37:56.656Z,18.6
2022-08-30T12:38:56.714Z,18.7
2022-08-30T12:39:56.643Z,18.8
2022-08-30T12:40:56.679Z,18.7
2022-08-30T12:41:56.685Z,18.8
2022-08-30T12:42:56.662Z,18.8
2022-08-30T12:43:56.652Z,18.5
2022-08-30T12:44:56.663Z,18.7
2022-08-30T12:45:56.720Z,18.6
2022-08-30T12:46:59.106Z,18.5
2022-08-30T12:47:56.659Z,18.6
2022-08-30T12:48:56.661Z,18.5
2022-08-30T12:49:56.676Z,18.5
2022-08-30T12:50:56.661Z,18.4
2022-08-30T12:51:56.672Z,18.6
2022-08-30T12:52:56.667Z,18.5
2022-08-30T12:53:56.661Z,18.8
2022-08-30T12:54:56.846Z,18.7
2022-08-30T12:55:56.662Z,18.8
2022-08-30T12:56:56.677Z,18.9
2022-08-30T12:58:00.895Z,19
2022-08-30T12:58:56.658Z,18.7
2022-08-30T13:00:02.101Z,18.9
2022-08-30T13:00:56.788Z,18.8
2022-08-30T13:01:56.924Z,19.1
2022-08-30T13:02:56.711Z,19.2
2022-08-30T13:03:56.659Z,19.1
2022-08-30T13:04:56.661Z,18.7
2022-08-30T13:05:56.659Z,18.9
2022-08-30T13:06:56.682Z,18.7
2022-08-30T13:07:56.734Z,18.7
2022-08-30T13:08:56.662Z,18.7
2022-08-30T13:09:56.677Z,18.6
2022-08-30T13:10:56.669Z,18.6
2022-08-30T13:11:56.684Z,18.7
2022-08-30T13:12:56.667Z,18.6
2022-08-30T13:13:56.668Z,18.8
2022-08-30T13:14:56.737Z,19
2022-08-30T13:15:56.709Z,18.7
2022-08-30T13:16:56.732Z,18.8
2022-08-30T13:17:56.663Z,18.6
2022-08-30T13:18:56.668Z,18.7
2022-08-30T13:19:56.675Z,18.8
2022-08-30T13:20:56.675Z,18.6
2022-08-30T13:21:56.686Z,18.8
2022-08-30T13:22:56.688Z,19.1
2022-08-30T13:23:56.680Z,19
2022-08-30T13:24:56.699Z,18.9
2022-08-30T13:25:56.689Z,18.8
2022-08-30T13:26:56.687Z,19
2022-08-30T13:27:56.671Z,19.1
2022-08-30T13:28:56.675Z,18.9
2022-08-30T13:29:56.681Z,18.9
2022-08-30T13:30:56.674Z,18.9
2022-08-30T13:31:56.835Z,18.9
2022-08-30T13:32:56.675Z,19.1
2022-08-30T13:33:56.695Z,19
2022-08-30T13:34:56.675Z,19.2
2022-08-30T13:35:56.665Z,19.2
2022-08-30T13:36:56.709Z,19.1
2022-08-30T13:37:56.669Z,18.9